createdAt,value
2019-03-08T00:00:35.141Z,3.53
2019-03-08T00:03:03.709Z,2.27
2019-03-08T00:05:32.080Z,2.30
2019-03-08T00:08:00.481Z,4.07
2019-03-08T00:10:28.923Z,2.10
2019-03-08T00:12:57.305Z,3.57
2019-03-08T00:15:25.683Z,2.60
2019-03-08T00:17:54.781Z,5.57
2019-03-08T00:20:23.161Z,2.80
2019-03-08T00:22:51.539Z,3.00
2019-03-08T00:25:19.984Z,3.08
2019-03-08T00:27:48.382Z,4.33
2019-03-08T00:30:16.886Z,3.17
2019-03-08T00:32:45.522Z,2.67
2019-03-08T00:35:13.962Z,2.67
2019-03-08T00:37:42.349Z,3.83
2019-03-08T00:40:12.857Z,2.40
2019-03-08T00:42:41.259Z,4.23
2019-03-08T00:45:16.954Z,2.47
2019-03-08T00:47:45.342Z,5.87
2019-03-08T00:50:14.148Z,2.83
2019-03-08T00:52:42.542Z,4.17
2019-03-08T00:55:11.946Z,1.93
2019-03-08T00:57:40.388Z,3.23
2019-03-08T01:00:15.582Z,2.90
2019-03-08T01:02:43.959Z,4.23
2019-03-08T01:05:13.087Z,7.30
2019-03-08T01:07:41.530Z,4.20
2019-03-08T01:10:12.982Z,1.70
2019-03-08T01:12:41.358Z,1.73
2019-03-08T01:15:12.783Z,3.93
2019-03-08T01:17:41.166Z,4.27
2019-03-08T01:20:12.090Z,3.40
2019-03-08T01:22:40.464Z,2.03
2019-03-08T01:25:09.184Z,3.07
2019-03-08T01:27:38.691Z,2.57
2019-03-08T01:30:10.128Z,1.90
2019-03-08T01:32:38.565Z,2.50
2019-03-08T01:35:07.688Z,3.40
2019-03-08T01:37:36.130Z,3.30
2019-03-08T01:40:07.658Z,2.00
2019-03-08T01:42:36.029Z,2.50
2019-03-08T01:45:07.051Z,4.93
2019-03-08T01:47:35.423Z,1.80
2019-03-08T01:50:05.970Z,2.87
2019-03-08T01:52:34.325Z,3.13
2019-03-08T01:55:02.959Z,1.90
2019-03-08T01:57:31.329Z,3.13
2019-03-08T01:59:59.713Z,2.90
2019-03-08T02:02:28.152Z,2.03
2019-03-08T02:04:56.705Z,1.20
2019-03-08T02:07:25.315Z,3.63
2019-03-08T02:09:53.982Z,3.47
2019-03-08T02:12:22.352Z,1.57
2019-03-08T02:14:50.740Z,1.73
2019-03-08T02:17:19.119Z,2.17
2019-03-08T02:19:47.503Z,1.80
2019-03-08T02:22:15.882Z,2.03
2019-03-08T02:24:44.346Z,5.60
2019-03-08T02:27:12.709Z,3.13
2019-03-08T02:29:41.087Z,4.13
2019-03-08T02:32:09.454Z,2.50
2019-03-08T02:34:37.830Z,2.40
2019-03-08T02:37:06.195Z,2.50
2019-03-08T02:39:34.918Z,3.90
2019-03-08T02:42:03.284Z,1.40
2019-03-08T02:44:31.646Z,2.93
2019-03-08T02:47:00.018Z,1.93
2019-03-08T02:49:28.388Z,2.30
2019-03-08T02:51:56.763Z,1.63
2019-03-08T02:54:25.305Z,1.20
2019-03-08T02:56:53.681Z,2.40
2019-03-08T02:59:22.045Z,1.70
2019-03-08T03:01:50.422Z,2.17
2019-03-08T03:04:18.786Z,1.83
2019-03-08T03:06:47.169Z,1.60
2019-03-08T03:09:15.710Z,1.77
2019-03-08T03:11:44.088Z,0.97
2019-03-08T03:14:12.479Z,2.70
2019-03-08T03:16:40.827Z,1.40
2019-03-08T03:19:09.263Z,2.03
2019-03-08T03:21:37.637Z,2.10
2019-03-08T03:24:06.074Z,2.33
2019-03-08T03:26:34.491Z,1.27
2019-03-08T03:29:02.821Z,2.50
2019-03-08T03:31:31.206Z,0.97
2019-03-08T03:33:59.570Z,1.83
2019-03-08T03:36:27.945Z,0.80
2019-03-08T03:38:56.824Z,1.90
2019-03-08T03:41:25.197Z,1.75
2019-03-08T03:43:53.561Z,1.80
2019-03-08T03:46:21.933Z,1.83
2019-03-08T03:48:50.303Z,2.33
2019-03-08T03:51:18.673Z,1.30
2019-03-08T03:53:47.213Z,1.90
2019-03-08T03:56:15.592Z,2.20
2019-03-08T03:58:43.958Z,1.87
2019-03-08T04:01:23.033Z,1.00
2019-03-08T04:03:51.398Z,2.07
2019-03-08T04:06:20.150Z,3.90
2019-03-08T04:08:48.516Z,1.50
2019-03-08T04:11:16.893Z,1.00
2019-03-08T04:13:45.256Z,1.10
2019-03-08T04:16:13.646Z,1.10
2019-03-08T04:18:42.011Z,1.40
2019-03-08T04:21:10.557Z,1.70
2019-03-08T04:23:39.896Z,1.12
2019-03-08T04:26:08.260Z,1.63
2019-03-08T04:28:36.631Z,1.90
2019-03-08T04:31:05.014Z,2.93
2019-03-08T04:33:33.390Z,2.33
2019-03-08T04:36:01.756Z,2.00
2019-03-08T04:38:30.129Z,6.47
2019-03-08T04:40:58.493Z,4.70
2019-03-08T04:43:26.869Z,2.90
2019-03-08T04:45:55.236Z,3.73
2019-03-08T04:48:23.612Z,2.00
2019-03-08T04:50:51.972Z,3.23
2019-03-08T04:53:20.347Z,4.50
2019-03-08T04:55:48.712Z,1.67
2019-03-08T04:58:17.093Z,4.10
2019-03-08T05:00:45.474Z,3.23
2019-03-08T05:03:13.849Z,6.20
2019-03-08T05:05:42.217Z,4.17
2019-03-08T05:08:10.595Z,4.93
2019-03-08T05:10:40.017Z,1.93
2019-03-08T05:13:08.393Z,6.23
2019-03-08T05:15:36.848Z,1.53
2019-03-08T05:18:05.296Z,2.37
2019-03-08T05:20:33.659Z,2.00
2019-03-08T05:23:02.040Z,1.67
2019-03-08T05:25:30.414Z,6.93
2019-03-08T05:27:58.781Z,1.90
2019-03-08T05:30:27.153Z,5.40
2019-03-08T05:32:55.532Z,1.70
2019-03-08T05:35:23.892Z,2.27
2019-03-08T05:37:52.458Z,5.53
2019-03-08T05:40:20.823Z,1.20
2019-03-08T05:42:49.221Z,1.70
2019-03-08T05:45:17.605Z,3.37
2019-03-08T05:47:45.969Z,3.30
2019-03-08T05:50:14.788Z,1.97
2019-03-08T05:52:43.436Z,2.80
2019-03-08T05:55:12.562Z,4.20
2019-03-08T05:57:40.932Z,1.67
2019-03-08T06:00:16.250Z,2.93
2019-03-08T06:02:44.624Z,2.83
2019-03-08T06:05:13.074Z,2.20
2019-03-08T06:07:41.443Z,2.95
2019-03-08T06:10:30.956Z,5.53
2019-03-08T06:13:00.456Z,5.40
2019-03-08T06:15:28.892Z,2.20
2019-03-08T06:17:57.431Z,5.97
2019-03-08T06:20:25.816Z,3.17
2019-03-08T06:22:55.173Z,2.70
2019-03-08T06:25:23.552Z,3.77
2019-03-08T06:27:51.919Z,1.30
2019-03-08T06:30:20.291Z,3.03
2019-03-08T06:32:48.934Z,10.73
2019-03-08T06:35:17.310Z,3.23
2019-03-08T06:37:45.677Z,3.92
2019-03-08T06:40:14.590Z,2.20
2019-03-08T06:42:42.955Z,2.53
2019-03-08T06:45:17.987Z,3.77
2019-03-08T06:47:46.631Z,1.73
2019-03-08T06:50:16.571Z,3.40
2019-03-08T06:52:44.939Z,3.30
2019-03-08T06:55:17.589Z,4.77
2019-03-08T06:57:45.949Z,2.60
2019-03-08T07:00:36.995Z,7.37
2019-03-08T07:03:07.232Z,2.80
2019-03-08T07:05:35.781Z,1.50
2019-03-08T07:08:04.519Z,4.33
2019-03-08T07:10:32.894Z,3.30
2019-03-08T07:13:03.476Z,1.80
2019-03-08T07:15:31.545Z,2.50
2019-03-08T07:17:59.930Z,11.93
2019-03-08T07:20:46.400Z,6.53
2019-03-08T07:23:28.133Z,3.87
2019-03-08T07:26:02.825Z,3.23
2019-03-08T07:28:48.896Z,1.97
2019-03-08T07:31:21.832Z,3.30
2019-03-08T07:34:00.619Z,2.70
2019-03-08T07:39:40.296Z,6.53
2019-03-08T07:42:10.386Z,4.63
2019-03-08T07:44:58.525Z,7.30
2019-03-08T07:47:37.555Z,4.25
2019-03-08T07:50:24.925Z,6.10
2019-03-08T07:53:06.654Z,4.73
2019-03-08T07:55:42.549Z,4.17
2019-03-08T07:58:21.998Z,5.70
2019-03-08T08:00:54.856Z,3.43
2019-03-08T08:03:24.867Z,2.80
2019-03-08T08:06:00.824Z,3.67
2019-03-08T08:08:33.506Z,3.37
2019-03-08T08:11:09.546Z,4.63
2019-03-08T08:13:39.556Z,3.93
2019-03-08T08:16:12.257Z,7.53
2019-03-08T08:18:48.817Z,4.47
2019-03-08T08:21:24.903Z,3.73
2019-03-08T08:24:00.401Z,3.40
2019-03-08T08:26:36.491Z,2.90
2019-03-08T08:29:12.303Z,2.37
2019-03-08T08:31:43.214Z,3.57
2019-03-08T08:34:18.953Z,5.97
2019-03-08T08:37:03.804Z,2.77
2019-03-08T08:39:42.475Z,2.77
2019-03-08T08:42:18.939Z,2.17
2019-03-08T08:44:53.080Z,2.50
2019-03-08T08:47:26.136Z,2.10
2019-03-08T08:50:01.736Z,4.50
2019-03-08T08:52:37.307Z,2.37
2019-03-08T08:55:27.564Z,4.17
2019-03-08T08:58:13.730Z,3.73
2019-03-08T09:00:52.945Z,2.73
2019-03-08T09:03:34.882Z,3.37
2019-03-08T09:06:05.261Z,2.47
2019-03-08T09:08:35.283Z,2.17
2019-03-08T09:11:17.414Z,3.00
2019-03-08T09:13:47.429Z,2.60
2019-03-08T09:16:32.893Z,3.00
2019-03-08T09:19:02.905Z,5.73
2019-03-08T09:21:48.973Z,3.47
2019-03-08T09:24:19.061Z,5.97
2019-03-08T09:27:07.060Z,3.10
2019-03-08T09:29:41.172Z,3.30
2019-03-08T09:32:08.811Z,3.27
2019-03-08T09:34:44.421Z,1.60
2019-03-08T09:37:14.429Z,3.93
2019-03-08T09:39:44.448Z,2.63
2019-03-08T09:42:30.876Z,2.40
2019-03-08T09:45:01.084Z,4.80
2019-03-08T09:47:47.067Z,2.20
2019-03-08T09:50:19.492Z,5.00
2019-03-08T09:55:43.816Z,3.87
2019-03-08T09:58:16.250Z,3.50
2019-03-08T10:00:49.229Z,4.30
2019-03-08T10:03:21.819Z,4.80
2019-03-08T10:05:57.989Z,3.27
2019-03-08T10:08:28.005Z,6.87
2019-03-08T10:11:00.670Z,5.73
2019-03-08T10:13:31.005Z,4.60
2019-03-08T10:16:01.013Z,3.03
2019-03-08T10:18:42.936Z,6.20
2019-03-08T10:21:22.537Z,3.47
2019-03-08T10:23:52.756Z,6.20
2019-03-08T10:26:25.417Z,9.83
2019-03-08T10:28:58.341Z,1.40
2019-03-08T10:31:31.078Z,4.70
2019-03-08T10:34:13.108Z,3.13
2019-03-08T10:36:48.831Z,4.17
2019-03-08T10:39:21.743Z,5.30
2019-03-08T10:41:54.359Z,4.33
2019-03-08T10:44:24.651Z,3.87
2019-03-08T10:46:54.737Z,3.17
2019-03-08T10:49:24.898Z,2.97
2019-03-08T10:52:17.656Z,3.83
2019-03-08T10:54:48.878Z,3.37
2019-03-08T10:57:27.837Z,3.40
2019-03-08T11:00:14.138Z,4.00
2019-03-08T11:03:00.885Z,7.40
2019-03-08T11:05:42.579Z,5.90
2019-03-08T11:08:15.357Z,4.20
2019-03-08T11:11:06.282Z,3.53
2019-03-08T11:13:42.827Z,2.20
2019-03-08T11:16:24.967Z,4.07
2019-03-08T11:19:08.547Z,16.32
2019-03-08T11:21:41.334Z,1.93
2019-03-08T11:24:11.353Z,3.23
2019-03-08T11:27:04.740Z,5.60
2019-03-08T11:29:42.377Z,2.87
2019-03-08T11:32:23.313Z,5.27
2019-03-08T11:35:01.734Z,4.80
2019-03-08T11:37:31.736Z,3.80
2019-03-08T11:40:17.931Z,6.08
2019-03-08T11:42:50.851Z,13.00
2019-03-08T11:45:20.862Z,4.80
2019-03-08T11:47:56.652Z,6.43
2019-03-08T11:50:29.617Z,5.43
2019-03-08T11:53:16.130Z,3.73
2019-03-08T11:55:48.790Z,4.30
2019-03-08T11:58:27.371Z,5.85
2019-03-08T12:01:00.496Z,8.47
2019-03-08T12:03:33.010Z,3.00
2019-03-08T12:06:05.679Z,6.03
2019-03-08T12:08:48.069Z,8.90
2019-03-08T12:11:33.424Z,7.40
2019-03-08T12:14:06.323Z,9.23
2019-03-08T12:16:52.764Z,5.53
2019-03-08T12:19:39.236Z,5.67
2019-03-08T12:22:14.871Z,3.43
2019-03-08T12:24:54.108Z,12.30
2019-03-08T12:27:24.136Z,7.57
2019-03-08T12:29:54.142Z,3.77
2019-03-08T12:32:42.422Z,2.50
2019-03-08T12:35:15.625Z,9.43
2019-03-08T12:37:51.382Z,3.90
2019-03-08T12:40:30.788Z,4.58
2019-03-08T12:43:07.558Z,4.20
2019-03-08T12:45:38.666Z,8.20
2019-03-08T12:48:24.832Z,4.47
2019-03-08T12:50:57.548Z,5.63
2019-03-08T12:53:27.635Z,5.40
2019-03-08T12:56:09.760Z,2.63
2019-03-08T12:58:55.082Z,9.00
2019-03-08T13:01:25.231Z,11.30
2019-03-08T13:03:55.237Z,10.23
2019-03-08T13:06:37.262Z,9.83
2019-03-08T13:09:26.352Z,6.23
2019-03-08T13:11:54.726Z,6.20
2019-03-08T13:14:23.168Z,5.67
2019-03-08T13:16:51.612Z,12.50
2019-03-08T13:19:19.982Z,8.43
2019-03-08T13:21:48.618Z,5.87
2019-03-08T13:24:17.129Z,8.93
2019-03-08T13:26:45.497Z,4.73
2019-03-08T13:29:13.877Z,6.17
2019-03-08T13:31:42.245Z,9.67
2019-03-08T13:34:10.693Z,2.90
2019-03-08T13:36:39.188Z,8.23
2019-03-08T13:39:08.205Z,4.00
2019-03-08T13:41:36.567Z,3.87
2019-03-08T13:44:05.256Z,2.70
2019-03-08T13:46:33.621Z,2.90
2019-03-08T13:49:01.996Z,4.80
2019-03-08T13:51:30.456Z,5.72
2019-03-08T13:53:58.912Z,3.40
2019-03-08T13:56:27.345Z,2.30
2019-03-08T13:58:55.740Z,5.10
2019-03-08T14:01:24.108Z,7.70
2019-03-08T14:03:52.490Z,5.30
2019-03-08T14:06:20.877Z,2.63
2019-03-08T14:08:49.428Z,4.27
2019-03-08T14:11:17.794Z,5.20
2019-03-08T14:13:46.171Z,2.43
2019-03-08T14:16:14.551Z,8.13
2019-03-08T14:18:42.928Z,6.10
2019-03-08T14:21:11.429Z,4.40
2019-03-08T14:23:39.846Z,5.83
2019-03-08T14:26:08.216Z,3.07
2019-03-08T14:28:36.590Z,10.10
2019-03-08T14:31:15.323Z,9.90
2019-03-08T14:33:44.293Z,12.45
2019-03-08T14:36:12.854Z,6.23
2019-03-08T14:38:41.228Z,8.20
2019-03-08T14:41:14.514Z,6.70
2019-03-08T14:43:49.008Z,10.70
2019-03-08T14:46:35.358Z,28.47
2019-03-08T14:49:03.735Z,23.13
2019-03-08T14:51:32.096Z,17.23
2019-03-08T14:54:00.552Z,14.57
2019-03-08T14:56:31.775Z,16.05
2019-03-08T14:58:59.516Z,17.20
2019-03-08T15:01:27.888Z,14.10
2019-03-08T15:03:56.791Z,17.43
2019-03-08T15:06:28.080Z,9.73
2019-03-08T15:08:56.339Z,11.50
2019-03-08T15:11:24.959Z,16.57
2019-03-08T15:13:57.953Z,12.70
2019-03-08T15:16:23.816Z,10.88
2019-03-08T15:18:53.086Z,10.57
2019-03-08T15:21:21.465Z,10.53
2019-03-08T15:23:50.935Z,6.40
2019-03-08T15:26:20.229Z,25.03
2019-03-08T15:28:48.861Z,27.70
2019-03-08T15:31:17.253Z,47.83
2019-03-08T15:33:45.629Z,24.80
2019-03-08T15:36:14.884Z,23.15
2019-03-08T15:38:43.531Z,16.07
2019-03-08T15:41:12.051Z,13.87
2019-03-08T15:43:40.489Z,9.20
2019-03-08T15:46:08.929Z,9.87
2019-03-08T15:48:37.371Z,11.97
2019-03-08T15:51:05.844Z,8.70
2019-03-08T15:53:34.191Z,15.73
2019-03-08T15:56:02.696Z,13.13
2019-03-08T15:58:31.134Z,10.18
2019-03-08T16:00:59.578Z,11.40
2019-03-08T16:03:30.101Z,10.33
2019-03-08T16:05:58.065Z,17.37
2019-03-08T16:08:26.440Z,9.40
2019-03-08T16:10:54.802Z,8.90
2019-03-08T16:13:23.239Z,11.17
2019-03-08T16:15:51.614Z,12.43
2019-03-08T16:18:19.985Z,6.53
2019-03-08T16:20:48.496Z,7.43
2019-03-08T16:23:16.944Z,8.10
2019-03-08T16:25:47.949Z,12.03
2019-03-08T16:28:15.415Z,12.93
2019-03-08T16:30:47.463Z,25.60
2019-03-08T16:33:19.878Z,11.57
2019-03-08T16:36:06.339Z,15.73
2019-03-08T16:38:45.188Z,17.20
2019-03-08T16:41:29.744Z,10.33
2019-03-08T16:44:11.046Z,13.70
2019-03-08T16:46:40.826Z,10.87
2019-03-08T16:49:10.697Z,12.30
2019-03-08T16:51:56.869Z,9.80
2019-03-08T16:54:26.839Z,5.90
2019-03-08T16:56:59.846Z,10.70
2019-03-08T16:59:39.037Z,11.48
2019-03-08T17:02:09.180Z,11.63
2019-03-08T17:04:39.197Z,12.20
2019-03-08T17:07:21.420Z,7.23
2019-03-08T17:09:57.346Z,7.33
2019-03-08T17:12:33.082Z,3.70
2019-03-08T17:15:19.750Z,5.15
2019-03-08T17:18:01.919Z,4.23
2019-03-08T17:20:32.000Z,8.73
2019-03-08T17:23:02.136Z,4.70
2019-03-08T17:25:32.144Z,8.30
2019-03-08T17:28:02.234Z,5.12
2019-03-08T17:30:35.005Z,8.70
2019-03-08T17:33:11.320Z,5.57
2019-03-08T17:35:44.423Z,5.37
2019-03-08T17:38:17.689Z,7.27
2019-03-08T17:41:03.742Z,12.70
2019-03-08T17:43:36.205Z,6.95
2019-03-08T17:46:06.358Z,6.53
2019-03-08T17:48:36.379Z,3.93
2019-03-08T17:51:06.474Z,3.37
2019-03-08T17:53:39.490Z,7.47
2019-03-08T17:56:12.258Z,4.97
2019-03-08T17:58:44.954Z,4.53
2019-03-08T18:01:14.968Z,7.43
2019-03-08T18:03:48.079Z,5.70
2019-03-08T18:06:34.343Z,6.37
2019-03-08T18:09:22.769Z,5.83
2019-03-08T18:11:55.463Z,4.77
2019-03-08T18:14:37.401Z,4.27
2019-03-08T18:17:13.285Z,9.03
2019-03-08T18:22:21.267Z,5.80
2019-03-08T18:25:07.718Z,8.07
2019-03-08T18:27:37.718Z,5.23
2019-03-08T18:30:11.159Z,4.67
2019-03-08T18:32:44.164Z,7.30
2019-03-08T18:35:23.179Z,3.93
2019-03-08T18:38:09.887Z,7.50
2019-03-08T18:40:39.912Z,12.00
2019-03-08T18:43:25.012Z,9.90
2019-03-08T18:45:55.031Z,3.13
2019-03-08T18:48:25.034Z,6.93
2019-03-08T18:51:04.285Z,8.60
2019-03-08T18:53:34.396Z,2.73
2019-03-08T18:56:04.478Z,5.80
2019-03-08T18:58:34.579Z,6.50
2019-03-08T19:01:07.711Z,4.60
2019-03-08T19:06:30.588Z,7.30
2019-03-08T19:09:00.754Z,18.60
2019-03-08T19:11:30.764Z,12.30
2019-03-08T19:14:16.753Z,13.90
2019-03-08T19:16:52.844Z,17.93
2019-03-08T19:19:38.746Z,10.68
2019-03-08T19:22:26.399Z,13.77
2019-03-08T19:24:52.560Z,57.05
2019-03-08T19:27:23.550Z,65.50
2019-03-08T19:30:09.731Z,63.83
2019-03-08T19:32:42.533Z,82.70
2019-03-08T19:35:30.499Z,57.93
2019-03-08T19:38:15.310Z,43.00
2019-03-08T19:40:51.356Z,42.00
2019-03-08T19:43:27.110Z,39.50
2019-03-08T19:45:59.603Z,38.30
2019-03-08T19:48:41.274Z,37.20
2019-03-08T19:51:11.853Z,38.83
2019-03-08T19:53:48.096Z,34.83
2019-03-08T19:56:21.467Z,30.13
2019-03-08T19:58:51.577Z,31.93
2019-03-08T20:01:27.410Z,28.13
2019-03-08T20:07:05.185Z,32.70
2019-03-08T20:09:37.695Z,33.20
2019-03-08T20:14:52.109Z,28.07
2019-03-08T20:17:38.552Z,24.27
2019-03-08T20:20:20.022Z,27.03
2019-03-08T20:23:06.347Z,20.13
2019-03-08T20:25:36.398Z,21.33
2019-03-08T20:28:06.412Z,16.90
2019-03-08T20:30:39.288Z,20.30
2019-03-08T20:33:15.321Z,19.63
2019-03-08T20:35:45.342Z,20.67
2019-03-08T20:41:20.970Z,22.40
2019-03-08T20:43:51.039Z,20.17
2019-03-08T20:46:32.950Z,20.07
2019-03-08T20:49:01.394Z,16.30
2019-03-08T20:51:29.784Z,20.37
2019-03-08T20:53:58.162Z,19.40
2019-03-08T20:56:26.702Z,22.43
2019-03-08T20:58:55.118Z,23.13
2019-03-08T21:01:23.777Z,19.95
2019-03-08T21:03:52.148Z,13.00
2019-03-08T21:06:20.528Z,16.30
2019-03-08T21:08:48.894Z,17.87
2019-03-08T21:11:17.417Z,17.40
2019-03-08T21:13:45.786Z,16.87
2019-03-08T21:16:14.186Z,19.73
2019-03-08T21:18:42.569Z,14.40
2019-03-08T21:21:10.971Z,13.43
2019-03-08T21:23:39.352Z,12.90
2019-03-08T21:26:07.713Z,11.83
2019-03-08T21:28:36.101Z,12.10
2019-03-08T21:31:04.625Z,13.40
2019-03-08T21:33:33.017Z,15.32
2019-03-08T21:36:01.388Z,13.68
2019-03-08T21:38:29.770Z,14.33
2019-03-08T21:40:58.142Z,15.10
2019-03-08T21:43:26.697Z,22.13
2019-03-08T21:45:55.073Z,14.80
2019-03-08T21:48:23.449Z,17.30
2019-03-08T21:50:51.992Z,14.13
2019-03-08T21:53:20.375Z,12.77
2019-03-08T21:55:48.918Z,9.60
2019-03-08T21:58:17.950Z,11.63
2019-03-08T22:00:46.348Z,17.60
2019-03-08T22:03:14.888Z,13.47
2019-03-08T22:05:43.260Z,11.47
2019-03-08T22:08:17.216Z,13.93
2019-03-08T22:10:43.365Z,10.23
2019-03-08T22:13:11.822Z,10.47
2019-03-08T22:15:40.269Z,11.90
2019-03-08T22:18:08.651Z,12.47
2019-03-08T22:20:37.021Z,10.97
2019-03-08T22:23:06.010Z,9.87
2019-03-08T22:25:34.391Z,11.68
2019-03-08T22:28:02.838Z,10.13
2019-03-08T22:30:31.203Z,8.37
2019-03-08T22:32:59.584Z,10.00
2019-03-08T22:35:27.963Z,10.67
2019-03-08T22:37:56.343Z,9.95
2019-03-08T22:40:24.714Z,12.90
2019-03-08T22:42:53.081Z,8.37
2019-03-08T22:45:21.469Z,7.93
2019-03-08T22:47:49.839Z,9.83
2019-03-08T22:50:18.390Z,7.27
2019-03-08T22:52:46.758Z,8.20
2019-03-08T22:55:16.071Z,10.40
2019-03-08T22:57:44.437Z,9.40
2019-03-08T23:00:59.353Z,8.10
2019-03-08T23:03:28.864Z,9.20
2019-03-08T23:05:57.306Z,8.77
2019-03-08T23:08:25.680Z,10.13
2019-03-08T23:10:54.058Z,8.35
2019-03-08T23:13:23.086Z,6.03
2019-03-08T23:15:51.462Z,7.47
2019-03-08T23:18:19.830Z,8.13
2019-03-08T23:20:48.371Z,10.40
2019-03-08T23:23:16.817Z,8.13
2019-03-08T23:25:45.214Z,12.13
2019-03-08T23:28:31.594Z,17.60
2019-03-08T23:31:01.615Z,12.33
2019-03-08T23:33:29.988Z,9.33
2019-03-08T23:35:58.362Z,7.57
2019-03-08T23:38:26.728Z,6.92
2019-03-08T23:40:55.109Z,6.70
2019-03-08T23:43:23.478Z,7.97
2019-03-08T23:45:52.305Z,7.20
2019-03-08T23:48:20.669Z,8.27
2019-03-08T23:50:49.517Z,8.07
2019-03-08T23:53:18.574Z,6.50
2019-03-08T23:55:46.950Z,7.80
2019-03-08T23:58:15.335Z,7.73
